NCAR-RAP Real-Time Weather Data

Output produced by METARs form (23 February 2020  01:55 UTC)
found at http://weather.rap.ucar.edu/surface/
 
KACY 230054Z AUTO 21005KT 10SM CLR 03/M10 A3025 RMK AO2 SLP245 T00331100 TSNO $
KACY 222354Z 22005KT 10SM CLR 06/M12 A3024 RMK AO2 SLP241 T00561117 10106 20056 53004
KACY 222254Z 25006KT 10SM CLR 08/M12 A3023 RMK AO2 SLP237 T00781122
KACY 222154Z 26010G18KT 10SM CLR 09/M12 A3023 RMK AO2 SLP236 T00891122
KACY 222054Z 24011KT 10SM CLR 09/M14 A3023 RMK AO2 SLP237 T00941139 56017
KACY 221954Z 26012G20KT 10SM CLR 10/M14 A3024 RMK AO2 SLP239 T01001139
KACY 221854Z 27011KT 10SM CLR 10/M14 A3025 RMK AO2 SLP243 T01001139
KACY 221754Z 25013G20KT 10SM CLR 09/M15 A3028 RMK AO2 SLP253 T00891150 10094 21028 58029